createdAt,value
2023-05-21T00:01:59.906Z,101972.72
2023-05-21T00:04:28.581Z,101972.72
2023-05-21T00:06:55.575Z,101972.09
2023-05-21T00:09:23.979Z,101966.13
2023-05-21T00:11:51.044Z,101959.75
2023-05-21T00:14:18.281Z,101964.06
2023-05-21T00:16:46.889Z,101962.22
2023-05-21T00:19:13.912Z,101957.06
2023-05-21T00:21:41.045Z,101957.06
2023-05-21T00:24:08.879Z,101948.44
2023-05-21T00:26:37.451Z,101957.50
2023-05-21T00:29:04.505Z,101940.59
2023-05-21T00:31:32.151Z,101946.78
2023-05-21T00:33:59.342Z,101949.47
2023-05-21T00:36:26.319Z,101942.03
2023-05-21T00:38:53.487Z,101944.72
2023-05-21T00:41:22.895Z,101938.56
2023-05-21T00:43:52.775Z,101946.38
2023-05-21T00:46:21.429Z,101936.09
2023-05-21T00:48:50.922Z,101940.22
2023-05-21T00:51:18.504Z,101930.34
2023-05-21T00:53:46.582Z,101930.78
2023-05-21T00:56:13.784Z,101930.59
2023-05-21T00:58:41.628Z,101941.47
2023-05-21T01:01:13.730Z,101936.34
2023-05-21T01:03:41.255Z,101930.81
2023-05-21T01:06:10.252Z,101930.41
2023-05-21T01:08:38.609Z,101924.66
2023-05-21T01:11:07.201Z,101927.13
2023-05-21T01:13:39.381Z,101915.59
2023-05-21T01:16:08.635Z,101916.00
2023-05-21T01:18:38.117Z,101920.94
2023-05-21T01:21:07.303Z,101924.66
2023-05-21T01:23:36.010Z,101911.91
2023-05-21T01:26:02.971Z,101908.63
2023-05-21T01:28:30.054Z,101914.38
2023-05-21T01:31:04.980Z,101916.88
2023-05-21T01:33:44.363Z,101904.31
2023-05-21T01:36:24.048Z,101904.94
2023-05-21T01:39:02.038Z,101907.41
2023-05-21T01:41:34.569Z,101902.47
2023-05-21T01:44:05.857Z,101907.00
2023-05-21T01:46:36.470Z,101908.63
2023-05-21T01:49:05.199Z,101903.50
2023-05-21T01:51:33.073Z,101901.66
2023-05-21T01:54:01.778Z,101890.97
2023-05-21T01:56:28.769Z,101896.31
2023-05-21T01:58:59.431Z,101884.81
2023-05-21T02:01:27.062Z,101892.59
2023-05-21T02:03:54.098Z,101886.44
2023-05-21T02:06:21.390Z,101893.66
2023-05-21T02:08:48.428Z,101892.00
2023-05-21T02:11:16.827Z,101889.31
2023-05-21T02:13:45.948Z,101885.00
2023-05-21T02:16:14.812Z,101888.09
2023-05-21T02:18:43.420Z,101890.97
2023-05-21T02:21:13.658Z,101890.56
2023-05-21T02:23:41.684Z,101881.50
2023-05-21T02:26:08.896Z,101886.47
2023-05-21T02:28:37.162Z,101880.28
2023-05-21T02:31:04.098Z,101877.00
2023-05-21T02:33:31.144Z,101886.25
2023-05-21T02:35:58.365Z,101881.91
2023-05-21T02:38:25.758Z,101882.31
2023-05-21T02:40:52.986Z,101878.03
2023-05-21T02:43:20.178Z,101874.31
2023-05-21T02:45:48.905Z,101877.19
2023-05-21T02:48:15.930Z,101881.91
2023-05-21T02:50:42.883Z,101878.66
2023-05-21T02:53:09.808Z,101879.25
2023-05-21T02:55:37.052Z,101873.50
2023-05-21T02:58:04.636Z,101877.00
2023-05-21T03:00:31.549Z,101876.38
2023-05-21T03:02:59.978Z,101877.81
2023-05-21T03:05:26.943Z,101880.06
2023-05-21T03:07:53.841Z,101880.69
2023-05-21T03:10:20.887Z,101879.06
2023-05-21T03:12:47.797Z,101871.88
2023-05-21T03:15:15.007Z,101869.59
2023-05-21T03:17:42.386Z,101869.00
2023-05-21T03:20:16.216Z,101858.50
2023-05-21T03:22:43.442Z,101860.56
2023-05-21T03:25:10.738Z,101856.03
2023-05-21T03:27:38.846Z,101857.88
2023-05-21T03:30:07.602Z,101857.88
2023-05-21T03:32:37.599Z,101860.78
2023-05-21T03:35:05.801Z,101853.16
2023-05-21T03:37:33.994Z,101854.38
2023-05-21T03:40:00.952Z,101857.28
2023-05-21T03:42:27.966Z,101858.09
2023-05-21T03:44:55.173Z,101850.69
2023-05-21T03:47:22.111Z,101852.31
2023-05-21T03:49:49.024Z,101859.31
2023-05-21T03:52:15.905Z,101858.09
2023-05-21T03:54:44.224Z,101856.88
2023-05-21T03:57:11.147Z,101859.72
2023-05-21T03:59:38.046Z,101856.03
2023-05-21T04:02:05.446Z,101861.16
2023-05-21T04:04:33.687Z,101859.31
2023-05-21T04:07:00.835Z,101861.78
2023-05-21T04:09:27.976Z,101862.59
2023-05-21T04:11:56.249Z,101858.09
2023-05-21T04:14:23.445Z,101863.84
2023-05-21T04:16:50.330Z,101861.38
2023-05-21T04:19:17.327Z,101860.56
2023-05-21T04:21:44.924Z,101869.59
2023-05-21T04:24:11.950Z,101858.94
2023-05-21T04:26:41.934Z,101868.56
2023-05-21T04:29:10.314Z,101860.56
2023-05-21T04:31:37.333Z,101863.03
2023-05-21T04:34:04.936Z,101862.22
2023-05-21T04:36:31.881Z,101856.44
2023-05-21T04:38:58.785Z,101868.78
2023-05-21T04:41:25.668Z,101856.84
2023-05-21T04:43:55.457Z,101864.66
2023-05-21T04:46:25.195Z,101864.25
2023-05-21T04:48:54.861Z,101858.50
2023-05-21T04:51:22.718Z,101866.13
2023-05-21T04:53:49.858Z,101856.03
2023-05-21T04:56:18.413Z,101853.97
2023-05-21T04:58:45.622Z,101851.91
2023-05-21T05:01:12.869Z,101855.19
2023-05-21T05:03:41.275Z,101860.13
2023-05-21T05:06:08.566Z,101843.06
2023-05-21T05:08:35.760Z,101850.66
2023-05-21T05:11:02.987Z,101855.59
2023-05-21T05:13:29.942Z,101849.22
2023-05-21T05:15:57.383Z,101839.97
2023-05-21T05:18:24.470Z,101839.78
2023-05-21T05:20:52.822Z,101839.53
2023-05-21T05:23:19.684Z,101837.47
2023-05-21T05:25:46.857Z,101837.91
2023-05-21T05:28:13.805Z,101834.59
2023-05-21T05:30:40.794Z,101836.63
2023-05-21T05:33:07.888Z,101842.19
2023-05-21T05:35:35.025Z,101836.22
2023-05-21T05:38:03.448Z,101828.59
2023-05-21T05:40:30.560Z,101840.72
2023-05-21T05:42:57.453Z,101834.97
2023-05-21T05:45:26.495Z,101830.22
2023-05-21T05:47:53.411Z,101832.50
2023-05-21T05:50:21.013Z,101824.28
2023-05-21T05:52:47.930Z,101825.09
2023-05-21T05:55:16.327Z,101827.53
2023-05-21T05:57:45.000Z,101827.53
2023-05-21T06:00:14.030Z,101825.28
2023-05-21T06:02:40.985Z,101827.94
2023-05-21T06:05:09.854Z,101818.44
2023-05-21T06:07:38.534Z,101827.25
2023-05-21T06:10:06.729Z,101830.72
2023-05-21T06:12:35.303Z,101822.03
2023-05-21T06:15:02.237Z,101823.66
2023-05-21T06:17:30.567Z,101815.25
2023-05-21T06:19:57.631Z,101819.59
2023-05-21T06:22:25.646Z,101825.59
2023-05-21T06:24:53.086Z,101813.88
2023-05-21T06:27:20.276Z,101814.47
2023-05-21T06:29:48.535Z,101821.22
2023-05-21T06:32:15.711Z,101822.16
2023-05-21T06:34:42.619Z,101820.88
2023-05-21T06:37:09.729Z,101820.81
2023-05-21T06:39:36.646Z,101823.03
2023-05-21T06:44:30.802Z,101814.78
2023-05-21T06:46:59.029Z,101814.78
2023-05-21T06:49:26.455Z,101817.03
2023-05-21T06:51:53.408Z,101816.13
2023-05-21T06:54:20.383Z,101812.16
2023-05-21T06:56:47.352Z,101814.34
2023-05-21T06:59:14.293Z,101809.91
2023-05-21T07:01:42.604Z,101807.31
2023-05-21T07:04:11.355Z,101811.38
2023-05-21T07:06:39.106Z,101810.25
2023-05-21T07:09:06.332Z,101808.34
2023-05-21T07:11:33.283Z,101812.41
2023-05-21T07:14:01.657Z,101803.22
2023-05-21T07:16:28.760Z,101800.09
2023-05-21T07:18:55.783Z,101798.59
2023-05-21T07:21:24.619Z,101805.31
2023-05-21T07:23:51.565Z,101794.69
2023-05-21T07:26:18.760Z,101806.19
2023-05-21T07:28:45.808Z,101797.81
2023-05-21T07:31:13.118Z,101793.03
2023-05-21T07:33:40.139Z,101799.00
2023-05-21T07:36:07.573Z,101798.56
2023-05-21T07:38:35.777Z,101792.75
2023-05-21T07:41:02.681Z,101790.78
2023-05-21T07:43:29.616Z,101790.03
2023-05-21T07:45:56.590Z,101797.78
2023-05-21T07:48:23.660Z,101795.66
2023-05-21T07:50:52.443Z,101801.03
2023-05-21T07:53:19.619Z,101797.44
2023-05-21T07:55:48.104Z,101785.34
2023-05-21T07:58:16.359Z,101782.88
2023-05-21T08:00:45.210Z,101786.88
2023-05-21T08:03:12.374Z,101792.16
2023-05-21T08:05:39.518Z,101783.97
2023-05-21T08:08:06.622Z,101776.19
2023-05-21T08:10:33.529Z,101779.56
2023-05-21T08:13:01.726Z,101777.13
2023-05-21T08:15:28.648Z,101774.44
2023-05-21T08:17:55.671Z,101781.66
2023-05-21T08:20:23.017Z,101777.50
2023-05-21T08:22:49.921Z,101784.50
2023-05-21T08:25:16.835Z,101777.22
2023-05-21T08:27:43.786Z,101780.00
2023-05-21T08:30:13.187Z,101777.06
2023-05-21T08:32:40.092Z,101779.06
2023-05-21T08:35:08.590Z,101779.31
2023-05-21T08:37:35.570Z,101783.00
2023-05-21T08:40:04.128Z,101783.91
2023-05-21T08:42:43.404Z,101784.72
2023-05-21T08:45:14.313Z,101781.78
2023-05-21T08:47:43.975Z,101776.56
2023-05-21T08:50:18.264Z,101780.56
2023-05-21T08:52:45.903Z,101778.03
2023-05-21T08:55:13.257Z,101775.13
2023-05-21T08:57:43.871Z,101770.22
2023-05-21T09:00:14.110Z,101766.38
2023-05-21T09:02:43.838Z,101767.25
2023-05-21T09:05:12.280Z,101775.31
2023-05-21T09:07:47.030Z,101767.19
2023-05-21T09:10:17.327Z,101761.56
2023-05-21T09:12:45.669Z,101755.28
2023-05-21T09:15:13.976Z,101757.94
2023-05-21T09:17:40.902Z,101757.84
2023-05-21T09:20:12.295Z,101759.63
2023-05-21T09:22:44.324Z,101764.59
2023-05-21T09:25:12.719Z,101759.78
2023-05-21T09:27:40.415Z,101760.84
2023-05-21T09:30:13.336Z,101761.88
2023-05-21T09:32:41.324Z,101764.56
2023-05-21T09:35:10.571Z,101753.97
2023-05-21T09:37:38.620Z,101760.16
2023-05-21T09:40:15.149Z,101762.28
2023-05-21T09:42:43.682Z,101762.81
2023-05-21T09:45:11.479Z,101762.28
2023-05-21T09:47:44.463Z,101765.06
2023-05-21T09:50:12.841Z,101766.19
2023-05-21T09:52:42.097Z,101761.34
2023-05-21T09:55:14.459Z,101749.47
2023-05-21T09:57:42.850Z,101744.06
2023-05-21T10:00:18.460Z,101748.38
2023-05-21T10:02:48.056Z,101740.50
2023-05-21T10:05:16.665Z,101737.50
2023-05-21T10:07:50.062Z,101735.91
2023-05-21T10:10:20.487Z,101736.97
2023-05-21T10:12:53.143Z,101731.28
2023-05-21T10:15:24.353Z,101731.28
2023-05-21T10:17:55.483Z,101731.28
2023-05-21T10:20:22.944Z,101725.63
2023-05-21T10:22:50.739Z,101722.59
2023-05-21T10:25:18.803Z,101721.28
2023-05-21T10:27:48.132Z,101728.84
2023-05-21T10:30:18.007Z,101721.22
2023-05-21T10:32:48.077Z,101722.84
2023-05-21T10:35:17.715Z,101716.06
2023-05-21T10:37:45.543Z,101716.31
2023-05-21T10:40:13.842Z,101717.38
2023-05-21T10:43:24.958Z,101717.91
2023-05-21T10:46:15.132Z,101717.34
2023-05-21T10:49:04.633Z,101707.88
2023-05-21T10:51:49.273Z,101708.13
2023-05-21T10:54:57.886Z,101709.75
2023-05-21T10:58:07.683Z,101697.28
2023-05-21T11:00:35.073Z,101701.13
2023-05-21T11:03:04.957Z,101699.50
2023-05-21T11:05:51.195Z,101693.31
2023-05-21T11:08:31.760Z,101692.25
2023-05-21T11:10:59.444Z,101694.44
2023-05-21T11:13:27.738Z,101695.50
2023-05-21T11:16:08.058Z,101700.09
2023-05-21T11:18:57.964Z,101700.38
2023-05-21T11:21:30.497Z,101694.91
2023-05-21T11:24:18.617Z,101690.28
2023-05-21T11:27:04.266Z,101686.47
2023-05-21T11:29:44.445Z,101681.59
2023-05-21T11:32:15.455Z,101683.22
2023-05-21T11:34:45.819Z,101677.53
2023-05-21T11:37:30.588Z,101675.09
2023-05-21T11:40:22.758Z,101672.94
2023-05-21T11:42:52.680Z,101671.31
2023-05-21T11:45:21.204Z,101670.75
2023-05-21T11:47:49.473Z,101670.75
2023-05-21T11:50:17.638Z,101667.53
2023-05-21T11:52:45.392Z,101664.53
2023-05-21T11:55:15.630Z,101661.56
2023-05-21T11:57:44.735Z,101667.56
2023-05-21T12:00:16.811Z,101658.34
2023-05-21T12:02:50.494Z,101659.44
2023-05-21T12:05:17.907Z,101667.03
2023-05-21T12:07:48.820Z,101660.50
2023-05-21T12:10:20.898Z,101659.66
2023-05-21T12:12:55.464Z,101659.94
2023-05-21T12:15:24.406Z,101653.69
2023-05-21T12:17:52.966Z,101652.34
2023-05-21T12:20:20.681Z,101645.81
2023-05-21T12:22:49.033Z,101650.41
2023-05-21T12:25:19.823Z,101653.13
2023-05-21T12:27:49.813Z,101652.28
2023-05-21T12:30:16.964Z,101646.28
2023-05-21T12:32:44.405Z,101649.50
2023-05-21T12:35:21.884Z,101653.25
2023-05-21T12:37:50.700Z,101647.81
2023-05-21T12:40:20.199Z,101649.34
2023-05-21T12:42:47.402Z,101638.72
2023-05-21T12:45:15.173Z,101638.09
2023-05-21T12:47:48.936Z,101637.22
2023-05-21T12:50:21.682Z,101633.88
2023-05-21T12:52:48.682Z,101634.66
2023-05-21T12:55:17.155Z,101635.16
2023-05-21T12:57:45.754Z,101632.41
2023-05-21T13:00:14.207Z,101626.13
2023-05-21T13:02:43.272Z,101622.91
2023-05-21T13:05:17.687Z,101625.09
2023-05-21T13:07:46.916Z,101617.47
2023-05-21T13:10:16.148Z,101617.94
2023-05-21T13:12:44.467Z,101615.19
2023-05-21T13:15:13.922Z,101612.41
2023-05-21T13:17:40.989Z,101610.13
2023-05-21T13:20:11.978Z,101608.41
2023-05-21T13:22:43.385Z,101611.06
2023-05-21T13:25:11.560Z,101605.91
2023-05-21T13:27:38.937Z,101609.34
2023-05-21T13:30:07.662Z,101612.53
2023-05-21T13:32:36.889Z,101602.66
2023-05-21T13:35:05.010Z,101605.75
2023-05-21T13:37:32.192Z,101594.75
2023-05-21T13:39:59.181Z,101597.41
2023-05-21T13:42:26.116Z,101600.09
2023-05-21T13:44:53.471Z,101599.47
2023-05-21T13:47:20.543Z,101597.25
2023-05-21T13:49:49.180Z,101594.00
2023-05-21T13:52:16.968Z,101595.09
2023-05-21T13:54:44.052Z,101598.34
2023-05-21T13:57:11.028Z,101591.13
2023-05-21T13:59:38.096Z,101587.81
2023-05-21T14:02:06.073Z,101578.38
2023-05-21T14:04:33.013Z,101583.19
2023-05-21T14:07:01.601Z,101580.31
2023-05-21T14:09:29.285Z,101582.66
2023-05-21T14:11:57.098Z,101575.22
2023-05-21T14:14:24.561Z,101581.53
2023-05-21T14:16:52.318Z,101577.00
2023-05-21T14:19:19.369Z,101574.03
2023-05-21T14:21:46.388Z,101569.13
2023-05-21T14:24:14.630Z,101569.22
2023-05-21T14:26:41.803Z,101573.56
2023-05-21T14:29:09.269Z,101564.16
2023-05-21T14:31:37.060Z,101570.75
2023-05-21T14:34:05.094Z,101561.25
2023-05-21T14:36:32.477Z,101565.19
2023-05-21T14:38:59.502Z,101561.31
2023-05-21T14:41:27.946Z,101559.72
2023-05-21T14:43:55.170Z,101560.75
2023-05-21T14:46:22.162Z,101570.25
2023-05-21T14:48:49.208Z,101574.78
2023-05-21T14:51:16.377Z,101569.16
2023-05-21T14:53:43.316Z,101560.31
2023-05-21T14:56:10.449Z,101555.16
2023-05-21T14:58:38.811Z,101559.25
2023-05-21T15:01:05.919Z,101550.56
2023-05-21T15:03:32.997Z,101551.75
2023-05-21T15:06:00.046Z,101549.41
2023-05-21T15:08:26.978Z,101544.25
2023-05-21T15:10:54.996Z,101542.56
2023-05-21T15:13:21.875Z,101541.16
2023-05-21T15:15:50.400Z,101526.81
2023-05-21T15:18:17.342Z,101533.16
2023-05-21T15:20:44.437Z,101534.06
2023-05-21T15:25:41.150Z,101528.00
2023-05-21T15:28:08.081Z,101526.91
2023-05-21T15:30:35.206Z,101522.06
2023-05-21T15:33:03.563Z,101518.91
2023-05-21T15:35:30.653Z,101523.16
2023-05-21T15:37:57.685Z,101520.63
2023-05-21T15:40:26.901Z,101518.38
2023-05-21T15:42:54.457Z,101517.75
2023-05-21T15:45:21.403Z,101513.81
2023-05-21T15:47:48.580Z,101517.22
2023-05-21T15:50:17.284Z,101520.72
2023-05-21T15:52:44.185Z,101515.19
2023-05-21T15:55:11.219Z,101506.97
2023-05-21T15:57:38.214Z,101505.59
2023-05-21T16:00:06.935Z,101503.53
2023-05-21T16:02:33.857Z,101502.00
2023-05-21T16:05:00.914Z,101502.09
2023-05-21T16:07:29.146Z,101502.63
2023-05-21T16:09:56.092Z,101496.69
2023-05-21T16:12:23.072Z,101502.63
2023-05-21T16:14:50.300Z,101508.34
2023-05-21T16:17:18.161Z,101512.66
2023-05-21T16:19:45.193Z,101504.50
2023-05-21T16:22:12.059Z,101509.69
2023-05-21T16:24:40.418Z,101506.94
2023-05-21T16:27:07.294Z,101508.03
2023-05-21T16:29:34.229Z,101505.91
2023-05-21T16:32:01.193Z,101515.16
2023-05-21T16:34:28.133Z,101508.38
2023-05-21T16:36:55.156Z,101521.75
2023-05-21T16:39:22.073Z,101515.81
2023-05-21T16:41:50.419Z,101501.69
2023-05-21T16:44:17.481Z,101500.34
2023-05-21T16:46:44.424Z,101512.88
2023-05-21T16:49:11.381Z,101508.00
2023-05-21T16:51:38.320Z,101517.28
2023-05-21T16:54:06.280Z,101510.00
2023-05-21T16:56:33.214Z,101514.41
2023-05-21T16:59:01.775Z,101511.75
2023-05-21T17:01:28.906Z,101510.41
2023-05-21T17:03:56.352Z,101508.28
2023-05-21T17:06:23.978Z,101511.28
2023-05-21T17:08:51.016Z,101505.84
2023-05-21T17:11:18.117Z,101511.00
2023-05-21T17:13:48.016Z,101510.22
2023-05-21T17:16:16.418Z,101516.75
2023-05-21T17:18:43.503Z,101518.44
2023-05-21T17:21:10.815Z,101517.91
2023-05-21T17:23:37.861Z,101520.69
2023-05-21T17:26:06.944Z,101512.59
2023-05-21T17:28:33.896Z,101516.44
2023-05-21T17:31:01.702Z,101514.88
2023-05-21T17:33:30.072Z,101507.88
2023-05-21T17:35:56.982Z,101509.06
2023-05-21T17:38:23.975Z,101509.09
2023-05-21T17:40:50.915Z,101510.28
2023-05-21T17:43:18.000Z,101506.22
2023-05-21T17:45:44.972Z,101504.38
2023-05-21T17:48:12.094Z,101507.94
2023-05-21T17:50:40.457Z,101506.06
2023-05-21T17:53:07.452Z,101499.59
2023-05-21T17:55:34.573Z,101497.41
2023-05-21T17:58:01.704Z,101493.66
2023-05-21T18:00:28.590Z,101492.09
2023-05-21T18:02:55.609Z,101492.72
2023-05-21T18:05:22.749Z,101493.88
2023-05-21T18:07:51.072Z,101489.56
2023-05-21T18:10:17.972Z,101491.81
2023-05-21T18:12:46.274Z,101490.75
2023-05-21T18:15:15.014Z,101488.59
2023-05-21T18:17:42.017Z,101489.75
2023-05-21T18:20:10.148Z,101499.53
2023-05-21T18:22:37.050Z,101497.94
2023-05-21T18:25:06.714Z,101502.31
2023-05-21T18:27:33.588Z,101501.53
2023-05-21T18:30:03.257Z,101499.69
2023-05-21T18:32:30.441Z,101501.88
2023-05-21T18:34:58.429Z,101500.22
2023-05-21T18:37:27.028Z,101507.03
2023-05-21T18:39:53.997Z,101504.59
2023-05-21T18:42:22.267Z,101498.91
2023-05-21T18:44:51.211Z,101497.88
2023-05-21T18:47:18.191Z,101500.31
2023-05-21T18:49:45.157Z,101497.66
2023-05-21T18:52:12.159Z,101499.28
2023-05-21T18:54:39.103Z,101494.41
2023-05-21T18:57:06.279Z,101496.38
2023-05-21T18:59:34.582Z,101496.38
2023-05-21T19:02:01.596Z,101508.06
2023-05-21T19:04:28.728Z,101501.56
2023-05-21T19:06:55.781Z,101504.31
2023-05-21T19:09:22.752Z,101506.22
2023-05-21T19:11:50.556Z,101511.41
2023-05-21T19:14:17.507Z,101512.53
2023-05-21T19:16:45.961Z,101515.81
2023-05-21T19:19:12.949Z,101516.38
2023-05-21T19:21:40.002Z,101518.53
2023-05-21T19:24:07.626Z,101519.63
2023-05-21T19:26:34.778Z,101521.25
2023-05-21T19:29:01.678Z,101516.66
2023-05-21T19:31:28.695Z,101523.19
2023-05-21T19:33:56.991Z,101529.69
2023-05-21T19:36:24.803Z,101532.66
2023-05-21T19:38:51.793Z,101529.41
2023-05-21T19:41:21.879Z,101534.00
2023-05-21T19:43:48.793Z,101530.50
2023-05-21T19:46:19.092Z,101528.34
2023-05-21T19:48:46.940Z,101532.66
2023-05-21T19:51:15.788Z,101539.13
2023-05-21T19:53:42.707Z,101548.34
2023-05-21T19:56:09.616Z,101539.13
2023-05-21T19:58:36.469Z,101545.09
2023-05-21T20:01:03.720Z,101540.19
2023-05-21T20:03:35.661Z,101535.84
2023-05-21T20:06:02.731Z,101541.28
2023-05-21T20:08:31.205Z,101546.13
2023-05-21T20:10:58.099Z,101544.75
2023-05-21T20:13:25.115Z,101539.09
2023-05-21T20:15:52.201Z,101543.94
2023-05-21T20:18:22.063Z,101540.72
2023-05-21T20:20:49.147Z,101542.88
2023-05-21T20:23:16.151Z,101546.66
2023-05-21T20:25:44.406Z,101543.63
2023-05-21T20:28:12.037Z,101536.09
2023-05-21T20:30:53.632Z,101539.25
2023-05-21T20:33:20.865Z,101543.84
2023-05-21T20:35:47.852Z,101538.19
2023-05-21T20:38:15.753Z,101539.53
2023-05-21T20:40:44.550Z,101540.03
2023-05-21T20:43:14.897Z,101546.25
2023-05-21T20:45:41.882Z,101542.44
2023-05-21T20:48:09.722Z,101541.09
2023-05-21T20:50:37.345Z,101542.16
2023-05-21T20:53:04.437Z,101542.44
2023-05-21T20:55:34.685Z,101543.78
2023-05-21T20:58:03.651Z,101541.59
2023-05-21T21:00:31.585Z,101541.31
2023-05-21T21:03:01.169Z,101544.81
2023-05-21T21:05:28.599Z,101538.56
2023-05-21T21:07:56.098Z,101535.56
2023-05-21T21:10:23.204Z,101546.09
2023-05-21T21:12:50.269Z,101545.00
2023-05-21T21:15:18.757Z,101544.69
2023-05-21T21:17:45.868Z,101546.81
2023-05-21T21:20:13.684Z,101543.81
2023-05-21T21:22:41.083Z,101537.59
2023-05-21T21:25:09.214Z,101548.91
2023-05-21T21:27:36.382Z,101541.06
2023-05-21T21:30:04.583Z,101541.31
2023-05-21T21:32:32.944Z,101544.56
2023-05-21T21:34:59.865Z,101547.50
2023-05-21T21:37:29.214Z,101545.06
2023-05-21T21:39:56.553Z,101542.88
2023-05-21T21:42:23.788Z,101539.06
2023-05-21T21:44:50.733Z,101534.19
2023-05-21T21:47:17.649Z,101530.94
2023-05-21T21:49:45.877Z,101531.44
2023-05-21T21:52:14.564Z,101534.66
2023-05-21T21:54:41.452Z,101532.50
2023-05-21T21:57:08.366Z,101538.97
2023-05-21T21:59:38.620Z,101534.88
2023-05-21T22:02:06.009Z,101530.81
2023-05-21T22:04:33.053Z,101531.91
2023-05-21T22:07:01.732Z,101528.63
2023-05-21T22:09:28.874Z,101529.16
2023-05-21T22:11:56.376Z,101529.16
2023-05-21T22:14:23.394Z,101514.53
2023-05-21T22:16:52.969Z,101518.59
2023-05-21T22:19:23.681Z,101520.47
2023-05-21T22:21:51.012Z,101519.38
2023-05-21T22:24:31.333Z,101517.78
2023-05-21T22:27:00.364Z,101516.13
2023-05-21T22:29:27.346Z,101511.78
2023-05-21T22:31:54.282Z,101509.09
2023-05-21T22:34:22.191Z,101507.44
2023-05-21T22:36:49.135Z,101512.84
2023-05-21T22:39:16.746Z,101515.56
2023-05-21T22:41:45.529Z,101515.00
2023-05-21T22:44:12.412Z,101512.53
2023-05-21T22:46:41.904Z,101505.81
2023-05-21T22:49:10.143Z,101507.41
2023-05-21T22:51:37.408Z,101510.09
2023-05-21T22:54:04.764Z,101510.09
2023-05-21T22:56:31.687Z,101514.44
2023-05-21T22:58:59.929Z,101515.81
2023-05-21T23:01:26.993Z,101514.19
2023-05-21T23:03:53.945Z,101505.03
2023-05-21T23:06:20.876Z,101510.16
2023-05-21T23:08:47.817Z,101512.84
2023-05-21T23:11:14.836Z,101510.97
2023-05-21T23:13:41.711Z,101512.38
2023-05-21T23:16:10.126Z,101510.22
2023-05-21T23:18:37.265Z,101513.19
2023-05-21T23:21:04.493Z,101507.81
2023-05-21T23:23:31.490Z,101505.88
2023-05-21T23:25:58.935Z,101505.66
2023-05-21T23:28:26.925Z,101515.13
2023-05-21T23:30:54.164Z,101503.75
2023-05-21T23:33:22.384Z,101504.81
2023-05-21T23:35:49.273Z,101499.44
2023-05-21T23:38:16.248Z,101504.56
2023-05-21T23:40:43.354Z,101499.97
2023-05-21T23:43:10.574Z,101501.63
2023-05-21T23:45:37.622Z,101502.69
2023-05-21T23:48:05.125Z,101499.97
2023-05-21T23:50:33.587Z,101494.84
2023-05-21T23:53:00.647Z,101494.03
2023-05-21T23:55:27.525Z,101497.00
2023-05-21T23:57:54.399Z,101502.63
